Time;durP1;ratioP1;P1;durP2;ratioP2;P2;SDS_P1;SDS_P2;PMS_P1;PMS_P2;Temp;Humidity;BMP_temperature;BMP_pressure;BME280_temperature;BME280_humidity;BME280_pressure;Samples;Min_cycle;Max_cycle;Signal;HPM_P1;HPM_P2
2024/03/08 00:00:37;;;;;;;62.47;35.67;;;;;;;1.74;100.00;98014.78;6304628;28;20217;-40
2024/03/08 00:03:40;;;;;;;58.47;33.27;;;;;;;1.81;100.00;98014.88;6304481;28;20381;-39
2024/03/08 00:06:43;;;;;;;65.50;35.73;;;;;;;1.80;100.00;98015.88;6306306;28;20663;-39
2024/03/08 00:09:45;;;;;;;60.13;33.63;;;;;;;1.74;100.00;98011.34;6302242;28;20236;-39
2024/03/08 00:12:48;;;;;;;61.87;35.47;;;;;;;1.80;100.00;98018.50;6306788;28;20693;-40
2024/03/08 00:15:50;;;;;;;60.33;34.90;;;;;;;1.80;100.00;98016.69;6316916;28;20197;-39
2024/03/08 00:18:52;;;;;;;61.00;32.63;;;;;;;1.74;100.00;98006.91;6313895;28;20201;-40
2024/03/08 00:21:55;;;;;;;57.73;34.50;;;;;;;1.94;100.00;98014.28;6289084;28;20701;-39
2024/03/08 00:24:57;;;;;;;59.83;34.60;;;;;;;1.71;100.00;98012.50;6304639;28;20229;-40
2024/03/08 00:27:59;;;;;;;58.93;33.57;;;;;;;1.89;100.00;98009.56;6307998;28;20203;-41
2024/03/08 00:31:02;;;;;;;61.17;33.27;;;;;;;1.78;100.00;98008.19;6308797;28;20291;-41
2024/03/08 00:34:04;;;;;;;60.33;35.70;;;;;;;1.69;100.00;98011.88;6311883;28;20585;-41
2024/03/08 00:37:06;;;;;;;65.00;35.03;;;;;;;1.50;100.00;98004.47;6314257;28;20225;-40
2024/03/08 00:40:11;;;;;;;62.80;33.17;;;;;;;1.41;100.00;98001.09;6289394;28;20249;-41
2024/03/08 00:43:14;;;;;;;54.27;32.17;;;;;;;1.33;100.00;97998.53;6306237;28;20652;-39
2024/03/08 00:46:16;;;;;;;61.37;33.37;;;;;;;1.28;100.00;97991.19;6297634;28;20573;-40
2024/03/08 00:49:18;;;;;;;54.20;31.93;;;;;;;1.22;100.00;98004.97;6308915;28;20203;-40
2024/03/08 00:52:20;;;;;;;53.60;31.60;;;;;;;1.18;100.00;98000.25;6306743;28;20235;-40
2024/03/08 00:55:22;;;;;;;53.50;29.77;;;;;;;1.18;100.00;97987.13;6306924;28;20192;-41
2024/03/08 00:58:24;;;;;;;64.17;35.93;;;;;;;1.43;100.00;97987.78;6301682;28;20192;-39
2024/03/08 01:01:26;;;;;;;56.90;32.70;;;;;;;1.24;100.00;97987.28;6307796;28;20287;-40
2024/03/08 01:04:29;;;;;;;57.73;31.77;;;;;;;1.11;100.00;97981.78;6305579;28;20252;-40
2024/03/08 01:07:31;;;;;;;53.70;30.30;;;;;;;1.15;100.00;97982.25;6314681;28;20196;-40
2024/03/08 01:10:33;;;;;;;54.47;32.20;;;;;;;1.06;100.00;97978.88;6302868;28;20236;-40
2024/03/08 01:13:36;;;;;;;57.03;31.60;;;;;;;1.04;100.00;97975.63;6293636;28;20221;-40
2024/03/08 01:16:38;;;;;;;53.93;31.50;;;;;;;1.09;100.00;97969.84;6308025;28;20225;-40
2024/03/08 01:19:40;;;;;;;57.60;33.07;;;;;;;1.07;100.00;97971.81;6302308;28;20246;-42
2024/03/08 01:22:42;;;;;;;59.23;32.37;;;;;;;0.97;100.00;97970.22;6304489;28;20772;-39
2024/03/08 01:25:44;;;;;;;57.53;33.47;;;;;;;0.98;100.00;97974.47;6308045;28;20214;-39
2024/03/08 01:28:46;;;;;;;63.27;34.87;;;;;;;0.97;100.00;97972.84;6305771;28;20195;-40
2024/03/08 01:31:48;;;;;;;60.37;33.00;;;;;;;0.97;100.00;97978.09;6303731;28;20264;-40
2024/03/08 01:34:50;;;;;;;61.07;34.07;;;;;;;0.96;100.00;97965.16;6311742;28;20721;-40
2024/03/08 01:37:53;;;;;;;58.40;33.80;;;;;;;0.94;100.00;97964.53;6300846;28;20196;-41
2024/03/08 01:40:55;;;;;;;58.93;34.37;;;;;;;0.91;100.00;97960.44;6297847;28;20201;-39
2024/03/08 01:44:00;;;;;;;59.90;33.20;;;;;;;1.00;100.00;97962.00;6297005;28;20187;-42
2024/03/08 01:47:02;;;;;;;56.47;33.13;;;;;;;0.96;100.00;97955.47;6306235;28;20293;-41
2024/03/08 01:50:06;;;;;;;58.57;33.30;;;;;;;0.90;100.00;97964.06;6304661;28;20575;-39
2024/03/08 01:53:12;;;;;;;56.60;34.33;;;;;;;0.89;100.00;97966.84;6305010;28;20235;-39
2024/03/08 01:56:15;;;;;;;62.80;34.77;;;;;;;0.94;100.00;97959.28;6299774;28;20688;-40
2024/03/08 01:59:18;;;;;;;56.13;33.30;;;;;;;0.89;100.00;97959.81;6306286;28;20200;-39
2024/03/08 02:02:21;;;;;;;56.07;32.33;;;;;;;0.85;100.00;97963.75;6313546;28;20882;-40
2024/03/08 02:05:23;;;;;;;56.87;33.60;;;;;;;0.89;100.00;97962.44;6300184;28;20837;-40
2024/03/08 02:08:26;;;;;;;56.53;32.07;;;;;;;0.91;100.00;97954.38;6310798;28;20575;-39
2024/03/08 02:11:28;;;;;;;61.87;32.80;;;;;;;0.89;100.00;97957.19;6298097;28;20240;-39
2024/03/08 02:17:53;;;;;;;55.23;31.77;;;;;;;0.88;100.00;97952.09;6276887;28;20251;-55
2024/03/08 02:20:58;;;;;;;54.60;32.27;;;;;;;0.85;100.00;97955.06;6282092;28;20197;-55
2024/03/08 02:24:01;;;;;;;58.37;33.63;;;;;;;0.77;100.00;97956.75;6285314;28;20196;-50
2024/03/08 02:27:04;;;;;;;59.77;33.90;;;;;;;0.74;100.00;97946.63;6286811;28;20198;-54
2024/03/08 02:30:06;;;;;;;60.13;32.27;;;;;;;0.73;100.00;97952.81;6288292;28;20574;-55
2024/03/08 02:33:09;;;;;;;62.97;35.67;;;;;;;0.76;100.00;97951.69;6271157;28;20197;-55
2024/03/08 02:36:12;;;;;;;63.10;34.27;;;;;;;0.75;100.00;97956.09;6278309;28;20201;-53
2024/03/08 02:39:14;;;;;;;57.90;33.83;;;;;;;0.65;100.00;97952.06;6284581;28;20566;-50
2024/03/08 02:42:17;;;;;;;61.03;33.47;;;;;;;0.68;100.00;97946.47;6261874;28;20189;-56
2024/03/08 02:45:20;;;;;;;63.87;35.13;;;;;;;0.63;100.00;97944.34;6246619;28;20206;-55
2024/03/08 02:48:22;;;;;;;60.63;33.67;;;;;;;0.64;100.00;97946.00;6270495;28;20562;-54
2024/03/08 02:51:26;;;;;;;69.23;36.80;;;;;;;0.68;100.00;97946.47;6281981;28;20283;-54
2024/03/08 02:54:28;;;;;;;60.00;33.87;;;;;;;0.62;100.00;97929.63;6287449;28;20276;-53
2024/03/08 02:57:30;;;;;;;54.93;31.13;;;;;;;0.70;100.00;97949.75;6278117;28;20184;-57
2024/03/08 03:00:32;;;;;;;58.10;33.93;;;;;;;0.65;100.00;97934.53;6273372;28;20188;-53
2024/03/08 03:03:34;;;;;;;59.67;32.50;;;;;;;0.74;100.00;97946.63;6277104;28;20669;-55
2024/03/08 03:06:37;;;;;;;57.30;33.07;;;;;;;0.71;100.00;97930.41;6275814;28;20704;-57
2024/03/08 03:09:39;;;;;;;64.00;34.70;;;;;;;0.73;100.00;97937.09;6282566;28;20183;-50
2024/03/08 03:12:41;;;;;;;60.30;33.50;;;;;;;0.72;100.00;97938.09;6281237;28;20220;-50
2024/03/08 03:15:43;;;;;;;59.23;32.27;;;;;;;0.76;100.00;97939.38;6283902;28;20720;-55
2024/03/08 03:18:46;;;;;;;61.77;34.60;;;;;;;0.78;100.00;97936.56;6277555;28;20680;-56
2024/03/08 03:21:48;;;;;;;60.47;34.47;;;;;;;0.76;100.00;97935.94;6287280;28;20195;-55
2024/03/08 03:24:51;;;;;;;58.27;34.10;;;;;;;0.70;100.00;97934.03;6274957;28;20188;-54
2024/03/08 03:27:56;;;;;;;56.67;32.87;;;;;;;0.72;100.00;97932.84;6273164;28;20188;-53
2024/03/08 03:30:59;;;;;;;67.13;36.53;;;;;;;0.74;100.00;97930.06;6278599;28;20266;-56
2024/03/08 03:34:03;;;;;;;64.43;34.23;;;;;;;0.73;100.00;97934.47;6276252;28;20918;-50
2024/03/08 03:37:12;;;;;;;61.27;33.13;;;;;;;0.75;100.00;97929.88;6284089;28;20283;-57
2024/03/08 03:40:14;;;;;;;66.43;35.03;;;;;;;0.74;100.00;97928.25;6282735;28;20200;-54
2024/03/08 03:43:17;;;;;;;63.97;34.17;;;;;;;0.78;100.00;97929.53;6281543;28;20661;-52
2024/03/08 03:46:19;;;;;;;64.60;34.50;;;;;;;0.83;100.00;97930.81;6283843;28;20199;-51
2024/03/08 03:49:21;;;;;;;59.27;34.93;;;;;;;0.86;100.00;97927.84;6290442;28;20194;-55
2024/03/08 03:52:23;;;;;;;59.83;33.53;;;;;;;0.87;100.00;97922.44;6292724;28;20205;-56
2024/03/08 03:55:26;;;;;;;56.43;32.37;;;;;;;0.80;100.00;97924.13;6271641;28;20565;-57
2024/03/08 03:58:29;;;;;;;64.70;36.03;;;;;;;0.72;100.00;97904.00;6290856;28;20727;-56
2024/03/08 04:01:31;;;;;;;64.40;36.17;;;;;;;0.86;100.00;97920.78;6284200;28;20657;-54
2024/03/08 04:04:35;;;;;;;63.97;36.80;;;;;;;0.82;100.00;97923.94;6279404;28;20291;-55
2024/03/08 04:07:38;;;;;;;62.47;34.20;;;;;;;0.77;100.00;97922.66;6282551;28;20686;-53
2024/03/08 04:10:43;;;;;;;63.10;35.63;;;;;;;0.78;100.00;97921.66;6282311;28;20206;-50
2024/03/08 04:13:45;;;;;;;63.93;34.27;;;;;;;0.77;100.00;97925.28;6288645;28;20206;-56
2024/03/08 04:16:48;;;;;;;62.63;35.50;;;;;;;0.82;100.00;97921.31;6289215;28;20259;-57
2024/03/08 04:19:51;;;;;;;67.53;35.97;;;;;;;0.83;100.00;97920.31;6288203;28;20197;-54
2024/03/08 04:22:53;;;;;;;69.83;37.07;;;;;;;0.81;100.00;97917.06;6270839;28;20289;-54
2024/03/08 04:25:55;;;;;;;62.03;34.77;;;;;;;0.78;100.00;97911.16;6262286;28;20196;-54
2024/03/08 04:28:57;;;;;;;59.77;34.13;;;;;;;0.82;100.00;97916.06;6276567;28;20208;-55
2024/03/08 04:32:03;;;;;;;62.00;34.77;;;;;;;0.86;100.00;97914.75;6270776;28;20192;-52
2024/03/08 04:35:05;;;;;;;63.87;34.47;;;;;;;0.87;100.00;97905.88;6280582;28;20229;-56
2024/03/08 04:38:08;;;;;;;64.37;35.27;;;;;;;0.79;100.00;97896.28;6271131;28;20204;-54
2024/03/08 04:41:10;;;;;;;67.73;35.40;;;;;;;0.97;100.00;97924.81;6277172;28;20325;-55
2024/03/08 04:44:12;;;;;;;69.90;36.30;;;;;;;0.82;100.00;97900.34;6288773;28;20643;-53
2024/03/08 04:47:15;;;;;;;63.97;35.10;;;;;;;0.96;100.00;97925.81;6274715;28;20678;-52
2024/03/08 04:50:18;;;;;;;66.43;37.17;;;;;;;0.95;100.00;97924.19;6271800;28;20689;-55
2024/03/08 04:53:20;;;;;;;61.57;34.83;;;;;;;0.47;100.00;97857.97;6340982;22;20232;-90
2024/03/08 04:56:22;;;;;;;64.43;36.37;;;;;;;0.80;100.00;97904.97;6313919;28;20197;-91
2024/03/08 04:59:28;;;;;;;70.17;38.17;;;;;;;0.97;100.00;97919.56;6301718;28;20198;-91
2024/03/08 05:02:30;;;;;;;71.37;36.53;;;;;;;0.83;100.00;97902.78;6299174;28;20203;-91
2024/03/08 05:05:33;;;;;;;67.60;34.60;;;;;;;-0.24;100.00;97743.78;6314612;28;20202;-91
2024/03/08 05:08:35;;;;;;;67.50;37.10;;;;;;;-1.16;100.00;97605.72;6320389;28;20243;-91
2024/03/08 05:11:37;;;;;;;66.87;36.17;;;;;;;0.04;100.00;97797.28;6320517;28;20887;-90
2024/03/08 05:14:40;;;;;;;69.70;38.00;;;;;;;0.38;100.00;97815.25;6289887;28;20292;-90
2024/03/08 05:17:42;;;;;;;63.37;34.87;;;;;;;0.93;100.00;97924.34;6308392;28;20682;-90
2024/03/08 05:20:45;;;;;;;76.97;39.20;;;;;;;0.77;100.00;97890.38;6301067;28;20210;-91
2024/03/08 05:23:47;;;;;;;74.27;38.80;;;;;;;0.73;100.00;97918.75;6315639;28;20195;-91
2024/03/08 05:26:50;;;;;;;68.20;37.97;;;;;;;-0.46;100.00;97711.34;6301444;28;20198;-91
2024/03/08 05:29:52;;;;;;;68.23;36.27;;;;;;;0.58;100.00;97857.56;6318064;28;20209;-91
2024/03/08 05:32:54;;;;;;;66.40;36.83;;;;;;;0.79;100.00;97912.00;6317922;28;20213;-91
2024/03/08 05:35:56;;;;;;;67.23;36.73;;;;;;;0.67;100.00;97871.44;6316874;28;20505;-91
2024/03/08 05:38:59;;;;;;;67.03;34.83;;;;;;;-0.83;100.00;97619.47;6298859;28;20209;-91
2024/03/08 05:42:01;;;;;;;69.33;37.93;;;;;;;1.11;100.00;97925.88;6331863;28;20582;-91
2024/03/08 05:45:06;;;;;;;71.60;36.70;;;;;;;-0.67;100.00;97651.75;6306718;28;20198;-91
2024/03/08 05:48:09;;;;;;;66.60;36.30;;;;;;;0.00;100.00;97775.06;6301500;28;20583;-91
2024/03/08 05:51:12;;;;;;;63.17;36.37;;;;;;;0.40;100.00;97809.88;6309163;28;20195;-92
2024/03/08 05:54:14;;;;;;;63.20;35.60;;;;;;;1.15;100.00;97924.53;6322694;28;20275;-91
2024/03/08 05:57:23;;;;;;;64.27;36.33;;;;;;;-0.30;100.00;97685.06;6322945;28;20677;-89
2024/03/08 06:00:26;;;;;;;76.03;38.10;;;;;;;-0.58;100.00;97676.91;6305521;28;20205;-89
2024/03/08 06:03:28;;;;;;;74.63;39.90;;;;;;;1.03;100.00;97911.00;6337938;28;20171;-91
2024/03/08 06:06:30;;;;;;;74.83;38.50;;;;;;;-0.08;100.00;97738.44;6346777;28;20553;-91
2024/03/08 06:09:32;;;;;;;72.43;38.57;;;;;;;-0.46;100.00;97645.91;6330129;28;20183;-91
2024/03/08 06:12:39;;;;;;;81.80;40.40;;;;;;;1.18;100.00;97900.56;6328497;28;20527;-91
2024/03/08 06:15:42;;;;;;;70.90;37.13;;;;;;;-0.10;100.00;97701.13;6326174;28;20248;-93
2024/03/08 06:18:44;;;;;;;70.07;38.97;;;;;;;0.40;100.00;97800.19;6331822;28;20214;-92
2024/03/08 06:21:46;;;;;;;76.37;39.67;;;;;;;0.16;100.00;97768.91;6323934;28;20193;-92
2024/03/08 06:24:48;;;;;;;69.53;38.93;;;;;;;1.21;100.00;97911.50;6309570;28;20201;-93
2024/03/08 06:27:51;;;;;;;70.10;37.77;;;;;;;1.07;100.00;97886.06;6324696;28;20225;-91
2024/03/08 06:30:56;;;;;;;69.90;37.23;;;;;;;-0.30;100.00;97666.75;6322264;28;20684;-92
2024/03/08 06:33:59;;;;;;;70.73;39.63;;;;;;;1.42;100.00;97936.28;6336587;28;20253;-92
2024/03/08 06:37:01;;;;;;;74.80;38.50;;;;;;;1.27;100.00;97918.69;6331542;28;20196;-91
2024/03/08 06:40:08;;;;;;;77.57;39.87;;;;;;;1.20;100.00;97925.63;6314094;28;20204;-91
2024/03/08 06:43:14;;;;;;;74.03;39.60;;;;;;;1.26;100.00;97919.69;6306703;28;20253;-91
2024/03/08 06:46:16;;;;;;;79.90;40.23;;;;;;;1.31;100.00;97923.59;6310964;28;20208;-92
2024/03/08 06:49:19;;;;;;;79.87;38.93;;;;;;;0.89;100.00;97875.06;6305197;28;20202;-92
2024/03/08 06:52:22;;;;;;;86.00;43.17;;;;;;;0.45;100.00;97763.00;6321169;28;20241;-92
2024/03/08 06:55:24;;;;;;;84.80;41.50;;;;;;;-0.16;100.00;97686.13;6316554;28;20203;-93
2024/03/08 06:58:27;;;;;;;92.20;42.50;;;;;;;-0.16;100.00;97684.31;6298363;28;20191;-92
2024/03/08 07:01:31;;;;;;;86.27;42.40;;;;;;;0.69;100.00;97806.53;6317543;28;20251;-91
2024/03/08 07:04:37;;;;;;;95.63;43.93;;;;;;;1.26;100.00;97919.69;6297144;28;20645;-92
2024/03/08 07:07:41;;;;;;;95.10;46.20;;;;;;;1.29;100.00;97894.91;6305640;28;20209;-93
2024/03/08 07:10:45;;;;;;;94.50;45.47;;;;;;;1.17;100.00;97877.94;6316982;28;20286;-92
2024/03/08 07:13:47;;;;;;;91.33;43.43;;;;;;;0.60;100.00;97770.91;6314808;28;20627;-92
2024/03/08 07:16:51;;;;;;;86.43;42.53;;;;;;;0.74;100.00;97818.13;6311387;28;20196;-91
2024/03/08 07:19:54;;;;;;;94.90;44.57;;;;;;;0.39;100.00;97787.25;6308175;28;20644;-91
2024/03/08 07:22:59;;;;;;;93.87;43.57;;;;;;;0.60;100.00;97787.44;6314331;28;20729;-92
2024/03/08 07:26:01;;;;;;;89.37;42.93;;;;;;;1.17;100.00;97891.88;6319867;28;20656;-91
2024/03/08 07:29:04;;;;;;;86.70;41.70;;;;;;;0.55;100.00;97792.41;6306910;28;20189;-91
2024/03/08 07:32:20;;;;;;;93.47;44.10;;;;;;;1.65;100.00;97944.94;6303181;28;20205;-91
2024/03/08 07:35:23;;;;;;;89.33;43.97;;;;;;;1.47;100.00;97912.94;6318203;28;20752;-91
2024/03/08 07:38:25;;;;;;;90.83;44.07;;;;;;;0.56;100.00;97783.53;6314298;28;20203;-91
2024/03/08 07:41:29;;;;;;;98.53;45.37;;;;;;;1.12;100.00;97865.34;6303866;28;20189;-91
2024/03/08 07:44:32;;;;;;;101.23;45.63;;;;;;;1.34;100.00;97910.13;6301320;28;20190;-91
2024/03/08 07:47:36;;;;;;;101.40;44.90;;;;;;;0.78;100.00;97795.78;6302518;28;20858;-91
2024/03/08 07:50:40;;;;;;;92.03;42.63;;;;;;;1.55;100.00;97928.63;6304960;28;20200;-90
2024/03/08 07:53:43;;;;;;;88.77;43.40;;;;;;;1.02;100.00;97843.78;6301831;28;20740;-91
2024/03/08 07:56:45;;;;;;;91.40;42.03;;;;;;;1.44;100.00;97894.94;6304142;28;20211;-91
2024/03/08 07:59:47;;;;;;;90.43;42.17;;;;;;;1.51;100.00;97917.66;6316067;28;20204;-91
2024/03/08 08:02:50;;;;;;;87.70;41.30;;;;;;;0.78;100.00;97787.94;6299894;28;20348;-91
2024/03/08 08:05:53;;;;;;;95.90;43.47;;;;;;;1.84;100.00;97980.38;6320459;28;20764;-91
2024/03/08 08:08:57;;;;;;;85.77;41.37;;;;;;;1.06;100.00;97839.81;6302821;28;20204;-90
2024/03/08 08:12:03;;;;;;;78.93;38.60;;;;;;;0.96;100.00;97813.03;6334365;28;20201;-91
2024/03/08 08:15:05;;;;;;;86.33;40.57;;;;;;;1.76;100.00;97934.00;6317420;28;20238;-91
2024/03/08 08:18:09;;;;;;;85.40;40.17;;;;;;;1.44;100.00;97890.50;6321443;28;20236;-92
2024/03/08 08:21:12;;;;;;;88.73;40.70;;;;;;;1.94;100.00;97970.44;6311421;28;20682;-91
2024/03/08 08:24:14;;;;;;;84.00;40.03;;;;;;;1.63;100.00;97930.38;6311406;28;20192;-91
2024/03/08 08:27:16;;;;;;;88.23;41.33;;;;;;;0.92;100.00;97785.53;6336781;28;20190;-91
2024/03/08 08:30:19;;;;;;;86.20;40.63;;;;;;;1.50;100.00;97881.91;6296367;28;20670;-91
2024/03/08 08:33:21;;;;;;;83.00;42.20;;;;;;;1.83;100.00;97904.41;6302212;28;20212;-92
2024/03/08 08:36:23;;;;;;;79.83;39.73;;;;;;;1.79;100.00;97875.03;6335255;28;20270;-91
2024/03/08 08:39:25;;;;;;;75.10;39.43;;;;;;;2.17;100.00;97909.06;6331328;28;20197;-92
2024/03/08 08:42:28;;;;;;;81.23;37.83;;;;;;;1.96;100.00;97871.22;6328235;28;20199;-91
2024/03/08 08:45:31;;;;;;;71.87;35.33;;;;;;;1.58;100.00;97781.25;6334725;28;20189;-91
2024/03/08 08:48:33;;;;;;;70.73;34.00;;;;;;;2.53;100.00;97917.84;6332374;28;20438;-91
2024/03/08 08:51:35;;;;;;;57.27;31.63;;;;;;;2.75;100.00;97921.31;6339180;28;20231;-91
2024/03/08 08:54:37;;;;;;;60.83;31.77;;;;;;;2.03;100.00;97789.88;6353008;28;20258;-92
2024/03/08 08:57:44;;;;;;;58.13;30.43;;;;;;;1.76;100.00;97763.28;6343934;28;20186;-92
2024/03/08 09:00:46;;;;;;;58.70;30.33;;;;;;;2.88;100.00;97917.19;6323097;28;20223;-92
2024/03/08 09:03:50;;;;;;;56.23;30.90;;;;;;;1.41;100.00;97687.94;6297990;28;20194;-92
2024/03/08 09:06:52;;;;;;;63.40;32.60;;;;;;;1.53;100.00;97686.47;6318304;28;20187;-92
2024/03/08 09:09:57;;;;;;;60.70;31.33;;;;;;;2.84;100.00;97893.06;6298925;28;20197;-93
2024/03/08 09:13:04;;;;;;;60.33;30.73;;;;;;;2.86;100.00;97909.50;6304245;28;20202;-92
2024/03/08 09:16:06;;;;;;;63.63;31.80;;;;;;;1.83;100.00;97725.78;6302098;28;20206;-93
2024/03/08 09:19:10;;;;;;;64.33;33.97;;;;;;;2.61;100.00;97843.28;6316328;28;20204;-92
2024/03/08 09:22:13;;;;;;;69.57;32.37;;;;;;;2.98;100.00;97880.88;6305296;28;20194;-93
2024/03/08 09:25:16;;;;;;;60.93;31.93;;;;;;;2.05;100.00;97711.66;6295882;28;20224;-92
2024/03/08 09:28:19;;;;;;;60.80;31.93;;;;;;;2.03;100.00;97695.28;6296576;28;20563;-93
2024/03/08 09:31:22;;;;;;;61.63;32.80;;;;;;;3.78;100.00;97921.81;6304002;28;20190;-92
2024/03/08 09:34:24;;;;;;;55.23;29.77;;;;;;;3.46;100.00;97860.81;6314113;28;20581;-92
2024/03/08 09:37:38;;;;;;;47.70;27.43;;;;;;;3.09;100.00;97796.94;6298622;28;20198;-92
2024/03/08 09:40:44;;;;;;;51.97;29.40;;;;;;;2.70;100.00;97742.19;6313234;28;20685;-93
2024/03/08 09:43:46;;;;;;;56.97;30.30;;;;;;;3.45;100.00;97895.22;6316096;28;20743;-92
2024/03/08 09:46:53;;;;;;;58.83;33.10;;;;;;;2.47;100.00;97742.41;6305439;28;20201;-91
2024/03/08 09:49:55;;;;;;;68.43;35.30;;;;;;;2.84;100.00;97812.31;6305664;28;20212;-92
2024/03/08 09:52:58;;;;;;;67.30;33.93;;;;;;;3.24;100.00;97888.16;6300398;28;20230;-92
2024/03/08 09:56:03;;;;;;;62.63;32.40;;;;;;;3.04;100.00;97872.22;6305164;28;20189;-92
2024/03/08 10:02:16;;;;;;;62.70;32.40;;;;;;;2.43;100.00;97766.63;6321748;28;20663;-92
2024/03/08 10:05:18;;;;;;;60.60;32.73;;;;;;;2.69;100.00;97776.56;6299211;28;20193;-91
2024/03/08 10:08:20;;;;;;;62.03;32.23;;;;;;;2.53;100.00;97806.59;6315357;28;20619;-91
2024/03/08 10:11:24;;;;;;;58.97;30.27;;;;;;;3.45;100.00;97914.50;6308873;28;20571;-91
2024/03/08 10:14:27;;;;;;;56.20;30.13;;;;;;;1.77;100.00;97644.13;6320931;28;20216;-92
2024/03/08 10:17:32;;;;;;;57.47;31.57;;;;;;;3.41;100.00;97899.25;6315989;28;20202;-91
2024/03/08 10:20:35;;;;;;;60.13;30.77;;;;;;;2.45;100.00;97780.41;6321014;28;20197;-91
2024/03/08 10:23:38;;;;;;;59.77;30.73;;;;;;;2.15;100.00;97741.09;6299780;28;20682;-92
2024/03/08 10:26:40;;;;;;;58.97;29.90;;;;;;;2.17;100.00;97733.00;6309899;28;20208;-92
2024/03/08 10:29:44;;;;;;;57.17;30.07;;;;;;;2.92;100.00;97827.19;6322851;28;20197;-91
2024/03/08 10:32:46;;;;;;;63.50;31.60;;;;;;;3.38;100.00;97918.06;6316820;28;20284;-91
2024/03/08 10:35:49;;;;;;;54.23;31.60;;;;;;;1.93;100.00;97710.53;6311124;28;20205;-92
2024/03/08 10:38:53;;;;;;;54.20;29.97;;;;;;;2.33;100.00;97786.16;6307838;28;20217;-92
2024/03/08 10:42:02;;;;;;;56.50;29.93;;;;;;;2.77;100.00;97855.38;6295787;28;20210;-91
2024/03/08 10:45:21;;;;;;;58.03;31.60;;;;;;;2.34;100.00;97744.91;6337652;28;20194;-92
2024/03/08 10:48:32;;;;;;;54.30;28.63;;;;;;;3.18;100.00;97854.72;6315806;28;20201;-92
2024/03/08 10:51:41;;;;;;;51.23;27.57;;;;;;;2.66;100.00;97771.69;6303704;28;20312;-92
2024/03/08 10:54:47;;;;;;;51.17;27.73;;;;;;;2.06;100.00;97684.38;6321295;28;20812;-92
2024/03/08 10:57:51;;;;;;;48.83;26.93;;;;;;;1.99;100.00;97641.50;6318613;28;20201;-92
2024/03/08 11:00:57;;;;;;;51.60;26.27;;;;;;;3.06;100.00;97802.59;6323960;28;20197;-92
2024/03/08 11:03:59;;;;;;;48.07;25.63;;;;;;;3.22;100.00;97812.03;6320804;28;20447;-92
2024/03/08 11:07:10;;;;;;;49.97;26.57;;;;;;;3.70;100.00;97880.63;6334214;28;20181;-92
2024/03/08 11:10:23;;;;;;;51.33;26.43;;;;;;;3.91;100.00;97876.28;6336945;28;20185;-91
2024/03/08 11:13:45;;;;;;;47.87;25.97;;;;;;;3.96;100.00;97829.09;6355453;28;20188;-91
2024/03/08 11:16:47;;;;;;;41.93;23.43;;;;;;;4.53;100.00;97876.16;6344617;28;20220;-90
2024/03/08 11:19:51;;;;;;;38.23;21.73;;;;;;;4.50;100.00;97917.94;6354452;28;20182;-91
2024/03/08 11:23:01;;;;;;;33.87;20.97;;;;;;;3.01;100.00;97635.75;6347502;28;20181;-91
2024/03/08 11:26:07;;;;;;;36.10;21.10;;;;;;;2.97;100.00;97630.06;6334379;28;20539;-91
2024/03/08 11:29:28;;;;;;;29.90;18.77;;;;;;;4.63;100.00;97868.69;6326622;28;20201;-92
2024/03/08 11:32:32;;;;;;;33.13;20.43;;;;;;;4.50;100.00;97846.72;6335150;28;20196;-91
2024/03/08 11:35:34;;;;;;;31.73;19.67;;;;;;;3.86;100.00;97727.47;6306033;28;20698;-92
2024/03/08 11:38:44;;;;;;;31.93;19.30;;;;;;;4.77;100.00;97840.47;6315876;28;20270;-91
2024/03/08 11:41:46;;;;;;;32.63;18.60;;;;;;;4.75;100.00;97826.69;6324514;28;20201;-91
2024/03/08 11:44:51;;;;;;;27.07;18.00;;;;;;;3.59;100.00;97620.38;6325510;28;20191;-92
2024/03/08 11:47:56;;;;;;;33.33;19.00;;;;;;;4.85;100.00;97818.38;6319395;28;20189;-92
2024/03/08 11:51:01;;;;;;;28.73;17.23;;;;;;;4.89;98.54;97823.06;6324904;28;20206;-91
2024/03/08 11:54:06;;;;;;;27.07;17.20;;;;;;;3.88;99.20;97683.28;6316379;28;20230;-91
2024/03/08 11:57:09;;;;;;;27.87;16.83;;;;;;;4.74;99.90;97814.50;6337292;28;20187;-92
2024/03/08 12:00:24;;;;;;;24.63;15.67;;;;;;;4.98;99.34;97833.44;6306727;28;20289;-91
2024/03/08 12:03:27;;;;;;;26.63;16.37;;;;;;;4.61;100.00;97825.84;6315986;28;20202;-92
2024/03/08 12:06:40;;;;;;;26.43;16.50;;;;;;;3.51;100.00;97681.16;6297644;28;20194;-93
2024/03/08 12:09:46;;;;;;;25.17;16.17;;;;;;;4.54;100.00;97817.13;6309669;28;20333;-91
2024/03/08 12:12:52;;;;;;;24.83;15.13;;;;;;;4.61;100.00;97796.00;6318221;28;20556;-91
2024/03/08 12:16:04;;;;;;;24.83;16.13;;;;;;;4.68;98.82;97781.00;6302922;28;20718;-92
2024/03/08 12:19:09;;;;;;;27.37;16.73;;;;;;;3.61;95.66;97603.38;6324508;28;20193;-94
2024/03/08 12:22:15;;;;;;;23.03;15.67;;;;;;;5.09;95.25;97823.06;6319128;23;20237;-56
2024/03/08 12:25:17;;;;;;;24.83;16.33;;;;;;;5.16;95.41;97825.69;6326626;28;20558;-50
2024/03/08 12:28:21;;;;;;;23.67;16.13;;;;;;;5.30;95.73;97821.22;6336161;28;20197;-55
2024/03/08 12:31:25;;;;;;;22.57;15.47;;;;;;;5.60;90.76;97817.09;6335545;28;20188;-52
2024/03/08 12:34:28;;;;;;;22.50;15.60;;;;;;;5.78;93.06;97819.13;6335256;28;20567;-53
2024/03/08 12:37:31;;;;;;;24.97;15.27;;;;;;;5.84;88.63;97812.19;6330027;28;20210;-52
2024/03/08 12:40:34;;;;;;;21.93;15.50;;;;;;;5.72;87.33;97817.31;6329659;28;20198;-51
2024/03/08 12:43:36;;;;;;;20.10;14.67;;;;;;;5.73;83.33;97811.00;6336068;28;20184;-51
2024/03/08 12:46:40;;;;;;;22.00;14.90;;;;;;;5.59;83.91;97810.22;6327952;28;20534;-56
2024/03/08 12:49:42;;;;;;;23.43;15.57;;;;;;;5.52;86.64;97808.59;6313326;28;20204;-54
2024/03/08 12:52:44;;;;;;;23.27;15.63;;;;;;;5.65;87.16;97813.84;6327742;28;20183;-52
2024/03/08 12:55:46;;;;;;;22.07;15.83;;;;;;;5.66;84.60;97808.38;6327129;28;20230;-54
2024/03/08 12:58:49;;;;;;;23.90;15.40;;;;;;;5.77;85.67;97806.09;6338182;28;20576;-53
2024/03/08 13:01:52;;;;;;;21.33;14.07;;;;;;;5.84;83.08;97812.97;6335877;28;20515;-53
2024/03/08 13:04:57;;;;;;;21.20;14.67;;;;;;;5.75;82.28;97790.44;6325957;28;20208;-56
2024/03/08 13:07:59;;;;;;;22.47;14.90;;;;;;;5.82;84.25;97799.19;6325879;28;20312;-49
2024/03/08 13:11:03;;;;;;;19.93;14.30;;;;;;;5.87;82.15;97796.72;6325798;28;20200;-56
2024/03/08 13:14:05;;;;;;;19.30;13.70;;;;;;;5.65;81.46;97785.59;6327543;28;20212;-53
2024/03/08 13:17:10;;;;;;;18.77;13.73;;;;;;;5.70;81.90;97792.91;6317969;28;20200;-54
2024/03/08 13:20:17;;;;;;;19.53;13.33;;;;;;;5.96;82.12;97781.47;6326576;28;20774;-57
2024/03/08 13:23:31;;;;;;;18.70;12.63;;;;;;;5.88;79.80;97784.31;6330953;28;20184;-53
2024/03/08 13:26:33;;;;;;;20.97;14.20;;;;;;;5.86;79.95;97781.03;6329399;28;20203;-52
2024/03/08 13:29:38;;;;;;;17.50;12.67;;;;;;;5.73;80.33;97758.13;6327465;28;20204;-56
2024/03/08 13:32:43;;;;;;;16.93;13.33;;;;;;;5.81;78.59;97765.84;6331365;28;20210;-57
2024/03/08 13:35:46;;;;;;;15.23;11.93;;;;;;;5.85;82.56;97782.06;6335043;28;20199;-51
2024/03/08 13:38:53;;;;;;;18.17;13.07;;;;;;;5.83;79.02;97768.25;6336031;28;20224;-54
2024/03/08 13:41:55;;;;;;;18.33;13.37;;;;;;;5.84;80.05;97770.69;6327702;28;20342;-55
2024/03/08 13:44:57;;;;;;;19.00;13.43;;;;;;;6.12;78.67;97766.94;6320335;28;20188;-51
2024/03/08 13:47:59;;;;;;;19.93;13.40;;;;;;;5.99;78.64;97761.72;6329733;28;20579;-51
2024/03/08 13:51:02;;;;;;;19.00;13.33;;;;;;;6.11;78.83;97752.13;6333283;28;20274;-53
2024/03/08 13:54:06;;;;;;;19.33;14.10;;;;;;;6.02;79.28;97754.19;6330902;28;20699;-53
2024/03/08 13:57:09;;;;;;;20.43;13.33;;;;;;;6.05;80.75;97761.69;6335357;28;20607;-55
2024/03/08 14:00:12;;;;;;;18.93;13.83;;;;;;;6.15;79.32;97746.16;6330371;28;20208;-55
2024/03/08 14:03:15;;;;;;;20.27;13.47;;;;;;;6.04;80.29;97751.31;6336422;28;20194;-50
2024/03/08 14:06:17;;;;;;;20.70;13.77;;;;;;;5.97;80.57;97742.63;6332204;28;20207;-54
2024/03/08 14:09:24;;;;;;;19.40;13.33;;;;;;;5.89;82.31;97717.19;6316527;28;20203;-52